Time;durP1;ratioP1;P1;durP2;ratioP2;P2;SDS_P1;SDS_P2;PMS_P1;PMS_P2;Temp;Humidity;BMP_temperature;BMP_pressure;BME280_temperature;BME280_humidity;BME280_pressure;Samples;Min_cycle;Max_cycle;Signal;HPM_P1;HPM_P2
2023/01/02 00:03:02;;;;;;;11.80;7.20;;;11.30;99.20;;;;;;20901910;28;20615;-64
2023/01/02 00:13:04;;;;;;;12.70;6.83;;;11.40;99.40;;;;;;20915924;28;20282;-65
2023/01/02 00:23:06;;;;;;;10.63;6.20;;;11.40;99.40;;;;;;20915677;28;20235;-67
2023/01/02 00:33:08;;;;;;;12.80;6.67;;;11.50;99.40;;;;;;20914199;28;20246;-70
2023/01/02 00:43:09;;;;;;;9.83;6.37;;;11.50;99.60;;;;;;20912978;28;20231;-66
2023/01/02 00:53:11;;;;;;;14.83;6.17;;;11.50;99.70;;;;;;20913472;28;20208;-64
2023/01/02 01:03:13;;;;;;;12.53;6.53;;;11.40;99.80;;;;;;20845948;28;20246;-65
2023/01/02 01:13:14;;;;;;;13.90;6.03;;;11.50;99.90;;;;;;20831622;28;20728;-69
2023/01/02 01:23:16;;;;;;;10.07;6.00;;;11.50;99.90;;;;;;20831203;28;20246;-69
2023/01/02 01:33:17;;;;;;;14.30;6.30;;;11.40;99.90;;;;;;20830330;28;20231;-68
2023/01/02 01:43:45;;;;;;;9.23;6.07;;;11.40;99.90;;;;;;20830560;28;20236;-69
2023/01/02 01:53:52;;;;;;;9.87;5.53;;;11.30;99.90;;;;;;20835712;28;20267;-69
2023/01/02 02:03:54;;;;;;;10.30;5.60;;;11.40;99.90;;;;;;20921888;28;20567;-69
2023/01/02 02:13:58;;;;;;;11.53;5.03;;;11.40;99.90;;;;;;20926439;28;20203;-70
2023/01/02 02:24:48;;;;;;;11.60;4.97;;;11.40;99.90;;;;;;20928033;28;20245;-69
2023/01/02 02:35:22;;;;;;;11.20;5.00;;;11.30;99.90;;;;;;20906662;28;20238;-69
2023/01/02 02:45:56;;;;;;;10.10;5.10;;;11.20;99.90;;;;;;20924920;28;20214;-68
2023/01/02 02:56:01;;;;;;;10.57;4.80;;;11.20;99.90;;;;;;20915103;28;20318;-69
2023/01/02 03:06:48;;;;;;;6.57;4.80;;;11.20;99.90;;;;;;20840428;28;20216;-69
2023/01/02 03:16:58;;;;;;;8.47;4.80;;;11.10;99.90;;;;;;20840318;28;20243;-66
2023/01/02 03:27:11;;;;;;;10.53;4.90;;;11.10;99.90;;;;;;20839538;28;20208;-68
2023/01/02 03:37:19;;;;;;;7.13;4.70;;;11.10;99.90;;;;;;20838681;28;20264;-65
2023/01/02 03:47:54;;;;;;;7.17;4.63;;;11.10;99.90;;;;;;20837986;28;20210;-65
2023/01/02 03:58:02;;;;;;;9.03;5.00;;;11.00;99.90;;;;;;20862435;28;20228;-66
2023/01/02 04:08:24;;;;;;;9.50;4.50;;;11.10;99.90;;;;;;20919038;28;20678;-65
2023/01/02 04:18:30;;;;;;;11.13;4.87;;;11.00;99.90;;;;;;20917328;28;20230;-64
2023/01/02 04:28:33;;;;;;;8.50;4.70;;;11.00;99.90;;;;;;20917500;28;20212;-65
2023/01/02 04:38:35;;;;;;;7.73;5.07;;;11.00;99.90;;;;;;20919416;28;20888;-65
2023/01/02 04:48:36;;;;;;;10.80;4.90;;;11.00;99.90;;;;;;20916210;28;20598;-69
2023/01/02 04:58:39;;;;;;;12.20;5.53;;;11.00;99.90;;;;;;20883207;28;20238;-70
2023/01/02 05:08:41;;;;;;;9.10;5.07;;;10.90;99.90;;;;;;20832187;28;20257;-68
2023/01/02 05:18:42;;;;;;;12.03;4.30;;;11.00;99.90;;;;;;20831115;28;20232;-70
2023/01/02 05:28:44;;;;;;;8.13;4.43;;;10.90;99.90;;;;;;20829951;28;20667;-69
2023/01/02 05:38:46;;;;;;;11.33;4.13;;;10.90;99.90;;;;;;20830684;28;20251;-69
2023/01/02 05:48:49;;;;;;;9.50;4.13;;;10.90;99.90;;;;;;20829639;28;20787;-69
2023/01/02 05:58:51;;;;;;;12.73;5.57;;;10.90;99.90;;;;;;20862012;28;20285;-66
2023/01/02 06:08:52;;;;;;;10.93;5.60;;;10.80;99.90;;;;;;20911602;28;20205;-65
2023/01/02 06:18:54;;;;;;;12.20;6.80;;;10.80;99.90;;;;;;20910663;28;20317;-66
2023/01/02 06:28:56;;;;;;;14.03;8.03;;;10.70;99.90;;;;;;20910034;28;20269;-65
2023/01/02 06:38:58;;;;;;;14.83;8.40;;;10.70;99.90;;;;;;20914959;28;20242;-65
2023/01/02 06:49:00;;;;;;;16.03;7.90;;;10.70;99.90;;;;;;20924674;28;20570;-65
2023/01/02 06:59:01;;;;;;;16.40;7.53;;;10.70;99.90;;;;;;20889122;28;20643;-65
2023/01/02 07:09:03;;;;;;;16.70;7.70;;;10.60;99.90;;;;;;20840558;28;20207;-66
2023/01/02 07:19:04;;;;;;;13.27;6.63;;;10.60;99.90;;;;;;20839632;28;20241;-65
2023/01/02 07:29:06;;;;;;;11.80;6.63;;;10.60;99.90;;;;;;20838654;28;20210;-69
2023/01/02 07:39:08;;;;;;;14.03;7.17;;;10.50;99.90;;;;;;20838385;28;20808;-65
2023/01/02 07:49:11;;;;;;;11.27;6.50;;;10.50;99.90;;;;;;20836818;28;20241;-65
2023/01/02 07:59:13;;;;;;;11.87;6.37;;;10.50;99.90;;;;;;20872166;28;20236;-69
2023/01/02 08:09:14;;;;;;;12.30;6.07;;;10.50;99.90;;;;;;20917817;28;20658;-71
2023/01/02 08:19:16;;;;;;;18.10;7.20;;;10.50;99.90;;;;;;20916968;28;20618;-70
2023/01/02 08:29:18;;;;;;;16.17;7.80;;;10.50;99.90;;;;;;20916636;28;20208;-69
2023/01/02 08:39:19;;;;;;;14.93;6.87;;;10.70;99.90;;;;;;20916756;28;20292;-69
2023/01/02 08:49:21;;;;;;;12.67;6.20;;;10.80;99.90;;;;;;20914988;28;20212;-66
2023/01/02 08:59:24;;;;;;;12.90;5.90;;;11.00;99.90;;;;;;20912583;28;20311;-69
2023/01/02 09:09:26;;;;;;;7.60;5.03;;;11.30;99.90;;;;;;20864846;28;20207;-67
2023/01/02 09:19:28;;;;;;;13.27;4.93;;;11.20;99.90;;;;;;20895165;28;20228;-64
2023/01/02 09:29:30;;;;;;;8.33;4.50;;;11.50;99.90;;;;;;20830039;28;20210;-72
2023/01/02 09:39:31;;;;;;;15.60;4.70;;;11.70;99.90;;;;;;20871622;28;20247;-71
2023/01/02 09:49:45;;;;;;;8.43;4.80;;;12.00;99.90;;;;;;20909452;28;20238;-72
2023/01/02 10:00:10;;;;;;;9.00;5.00;;;12.40;99.90;;;;;;20908688;28;20286;-70
2023/01/02 10:10:26;;;;;;;10.37;3.90;;;12.70;99.70;;;;;;20895798;28;20209;-71
2023/01/02 10:20:43;;;;;;;7.97;4.33;;;12.90;99.40;;;;;;20843255;28;20261;-71
2023/01/02 10:30:54;;;;;;;13.87;4.73;;;13.10;99.00;;;;;;20842633;28;20211;-71
2023/01/02 10:40:56;;;;;;;5.07;2.50;;;13.50;97.50;;;;;;20841962;28;20244;-70
2023/01/02 10:51:03;;;;;;;11.33;3.07;;;14.00;95.20;;;;;;20841193;28;20214;-70
2023/01/02 11:01:12;;;;;;;14.33;2.53;;;14.30;93.10;;;;;;20840472;28;20240;-71
2023/01/02 11:11:16;;;;;;;8.83;2.90;;;14.60;91.90;;;;;;20839249;28;20258;-69
2023/01/02 11:21:31;;;;;;;6.47;2.50;;;14.80;90.60;;;;;;20919480;28;20232;-67
2023/01/02 11:31:34;;;;;;;7.43;2.30;;;15.10;89.60;;;;;;20920385;28;20568;-69
2023/01/02 11:52:17;;;;;;;9.70;3.90;;;15.50;84.90;;;;;;20919503;28;20215;-70
2023/01/02 12:02:37;;;;;;;10.50;2.70;;;15.90;83.30;;;;;;20918415;28;20241;-71
2023/01/02 12:13:09;;;;;;;9.57;2.40;;;16.30;80.90;;;;;;20918242;28;20213;-69
2023/01/02 12:23:35;;;;;;;19.27;2.83;;;16.50;78.90;;;;;;20919262;28;20241;-70
2023/01/02 12:34:06;;;;;;;8.43;2.70;;;16.90;76.40;;;;;;20914513;28;20245;-70
2023/01/02 12:44:20;;;;;;;11.10;2.50;;;17.20;74.30;;;;;;20915080;28;20271;-71
2023/01/02 12:54:30;;;;;;;9.97;3.83;;;17.50;72.60;;;;;;20912772;28;20206;-70
2023/01/02 13:04:36;;;;;;;7.20;2.23;;;17.60;71.10;;;;;;20908379;28;20296;-70
2023/01/02 13:14:51;;;;;;;9.90;2.30;;;17.40;70.30;;;;;;20911402;28;20211;-70
2023/01/02 13:24:55;;;;;;;8.43;2.80;;;17.10;70.20;;;;;;20913163;28;20213;-70
2023/01/02 13:35:01;;;;;;;9.20;2.47;;;16.70;71.00;;;;;;20912759;28;20579;-70
2023/01/02 13:45:13;;;;;;;13.63;2.70;;;16.50;71.70;;;;;;20911840;28;20292;-70
2023/01/02 13:55:19;;;;;;;12.17;2.40;;;16.30;72.30;;;;;;20910660;28;20267;-69
2023/01/02 14:05:55;;;;;;;8.97;2.40;;;16.10;73.10;;;;;;20911551;28;20210;-70
2023/01/02 14:16:26;;;;;;;9.97;2.10;;;16.10;73.80;;;;;;20910591;28;20271;-70
2023/01/02 14:26:33;;;;;;;14.43;2.77;;;16.00;74.40;;;;;;20900435;28;20204;-70
2023/01/02 14:36:42;;;;;;;18.40;7.80;;;15.80;75.10;;;;;;20910393;28;20255;-69
2023/01/02 14:46:44;;;;;;;9.30;3.17;;;15.60;78.30;;;;;;20909605;28;20656;-69
2023/01/02 14:56:51;;;;;;;5.93;2.03;;;15.40;81.10;;;;;;20908505;28;20236;-69
2023/01/02 15:07:18;;;;;;;7.00;1.80;;;15.30;81.50;;;;;;20923038;28;20212;-69
2023/01/02 15:17:22;;;;;;;5.47;1.70;;;15.10;83.00;;;;;;20922762;28;20281;-69
2023/01/02 15:27:28;;;;;;;6.50;1.90;;;14.90;84.70;;;;;;20922210;28;20238;-69
2023/01/02 15:37:30;;;;;;;4.63;1.93;;;14.80;85.70;;;;;;20921632;28;20243;-70
2023/01/02 15:47:32;;;;;;;7.50;2.50;;;14.70;86.80;;;;;;20919777;28;20208;-70
2023/01/02 15:57:45;;;;;;;7.83;2.77;;;14.60;87.90;;;;;;20919969;28;20235;-69
2023/01/02 16:07:49;;;;;;;5.27;2.10;;;14.60;89.00;;;;;;20921660;28;20205;-70
2023/01/02 16:17:53;;;;;;;5.53;1.97;;;14.40;90.10;;;;;;20918188;28;20297;-68
2023/01/02 16:28:05;;;;;;;6.90;2.80;;;14.30;90.50;;;;;;20917605;28;20206;-68
2023/01/02 16:38:28;;;;;;;9.77;4.17;;;14.30;90.90;;;;;;20917611;28;20691;-70
2023/01/02 16:48:30;;;;;;;11.07;5.17;;;14.20;91.30;;;;;;20916224;28;20258;-70
2023/01/02 16:58:32;;;;;;;16.97;6.57;;;14.20;91.70;;;;;;20915088;28;20275;-69
2023/01/02 17:08:34;;;;;;;8.47;3.20;;;14.10;92.10;;;;;;20914674;28;20546;-70
2023/01/02 17:18:35;;;;;;;14.37;3.33;;;14.10;92.50;;;;;;20913760;28;20239;-70
2023/01/02 17:28:37;;;;;;;9.13;2.80;;;14.00;93.00;;;;;;20912805;28;20211;-70
2023/01/02 17:38:39;;;;;;;8.73;2.90;;;14.00;93.60;;;;;;20912615;28;20300;-70
2023/01/02 17:48:41;;;;;;;5.57;2.70;;;13.80;94.60;;;;;;20911924;28;20235;-70
2023/01/02 17:58:43;;;;;;;3.30;1.20;;;13.80;95.00;;;;;;20911577;28;20686;-74
2023/01/02 18:08:45;;;;;;;2.10;1.10;;;13.40;94.90;;;;;;20911753;28;20253;-72
2023/01/02 18:18:49;;;;;;;3.93;1.83;;;13.10;95.20;;;;;;20910960;28;20228;-73
2023/01/02 18:28:58;;;;;;;2.30;0.97;;;13.00;95.60;;;;;;20897587;28;20200;-72
2023/01/02 18:39:21;;;;;;;0.83;0.77;;;12.90;95.70;;;;;;20886418;28;20312;-66
2023/01/02 18:49:27;;;;;;;0.90;0.80;;;12.70;96.00;;;;;;20871744;28;20197;-69
2023/01/02 18:59:31;;;;;;;1.03;0.83;;;12.50;96.70;;;;;;20840794;28;20237;-70
2023/01/02 19:09:35;;;;;;;1.43;0.87;;;12.40;96.50;;;;;;20921062;28;20207;-72
2023/01/02 19:19:36;;;;;;;1.47;0.80;;;12.30;96.80;;;;;;20924001;28;20753;-72
2023/01/02 19:29:47;;;;;;;1.50;1.10;;;12.30;97.00;;;;;;20922327;28;20205;-77
2023/01/02 19:39:52;;;;;;;1.03;1.00;;;12.20;97.10;;;;;;20873437;28;20692;-76
2023/01/02 19:49:54;;;;;;;1.60;0.93;;;12.10;97.30;;;;;;20841641;28;20207;-71
2023/01/02 19:59:57;;;;;;;2.50;0.90;;;12.00;97.10;;;;;;20837753;28;20240;-74
2023/01/02 20:09:59;;;;;;;1.13;1.00;;;11.80;97.00;;;;;;20836616;28;20218;-73
2023/01/02 20:20:01;;;;;;;1.20;1.10;;;11.80;97.10;;;;;;20835058;28;20703;-68
2023/01/02 20:30:05;;;;;;;1.07;0.97;;;11.70;96.90;;;;;;20834979;28;20575;-70
2023/01/02 20:40:08;;;;;;;0.80;0.80;;;11.70;97.00;;;;;;20883929;28;20306;-68
2023/01/02 20:50:10;;;;;;;1.10;0.97;;;11.60;96.60;;;;;;20916444;28;20657;-68
2023/01/02 21:00:12;;;;;;;1.00;0.90;;;11.50;96.60;;;;;;20914634;28;20240;-70
2023/01/02 21:10:14;;;;;;;1.40;1.10;;;11.50;96.60;;;;;;20914791;28;20214;-69
2023/01/02 21:20:15;;;;;;;1.27;1.10;;;11.50;96.40;;;;;;20913940;28;20248;-68
2023/01/02 21:30:17;;;;;;;1.20;1.00;;;11.40;96.30;;;;;;20913395;28;20204;-68
2023/01/02 21:40:19;;;;;;;2.13;1.20;;;11.40;96.40;;;;;;20860311;28;20302;-68
2023/01/02 21:50:21;;;;;;;1.40;1.10;;;11.30;96.20;;;;;;20830380;28;20211;-69
2023/01/02 22:00:25;;;;;;;1.30;1.20;;;11.30;96.20;;;;;;20829564;28;20233;-70
2023/01/02 22:10:27;;;;;;;1.83;1.60;;;11.30;96.20;;;;;;20836973;28;20541;-71
2023/01/02 22:20:28;;;;;;;2.27;1.67;;;11.30;96.10;;;;;;20845529;28;20246;-70
2023/01/02 22:30:30;;;;;;;1.30;1.03;;;11.40;96.00;;;;;;20845349;28;20208;-77
2023/01/02 22:40:35;;;;;;;1.67;1.13;;;11.50;95.90;;;;;;20897782;28;20238;-72
2023/01/02 22:50:43;;;;;;;2.00;1.30;;;11.40;95.70;;;;;;20924208;28;20281;-72
2023/01/02 23:00:48;;;;;;;1.47;1.37;;;11.40;95.50;;;;;;20923350;28;20232;-72
2023/01/02 23:10:49;;;;;;;1.30;1.20;;;11.40;95.50;;;;;;20924002;28;20217;-72
2023/01/02 23:20:51;;;;;;;1.70;1.30;;;11.30;95.40;;;;;;20922836;28;20787;-73
2023/01/02 23:30:53;;;;;;;3.17;1.27;;;11.30;95.40;;;;;;20922565;28;20215;-73
2023/01/02 23:40:54;;;;;;;1.40;1.30;;;11.20;95.40;;;;;;20922090;28;20303;-68
2023/01/02 23:51:01;;;;;;;3.37;1.40;;;11.20;95.50;;;;;;20921091;28;20264;-69
